Time;durP1;ratioP1;P1;durP2;ratioP2;P2;SDS_P1;SDS_P2;PMS_P1;PMS_P2;Temp;Humidity;BMP_temperature;BMP_pressure;BME280_temperature;BME280_humidity;BME280_pressure;Samples;Min_cycle;Max_cycle;Signal;HPM_P1;HPM_P2
2022/03/21 00:02:04;;;;;;;;;;;4.60;89.70;;;;;;6215086;23;19920;-87
2022/03/21 00:04:39;;;;;;;;;;;4.50;89.70;;;;;;6180406;23;19908;-90
2022/03/21 00:07:19;;;;;;;;;;;4.50;89.70;;;;;;6169315;23;19904;-90
2022/03/21 00:09:52;;;;;;;;;;;4.50;89.70;;;;;;6161841;23;19935;-89
2022/03/21 00:12:49;;;;;;;;;;;;;;;;;;;;;
2022/03/21 00:16:04;;;;;;;;;;;;;;;;;;;;;
2022/03/21 00:24:38;;;;;;;;;;;;;;;;;;;;;
2022/03/21 00:27:12;;;;;;;;;;;4.40;90.10;;;;;;6189838;23;19992;-88
2022/03/21 00:32:47;;;;;;;;;;;4.30;90.20;;;;;;6175388;23;19909;-88
2022/03/21 00:35:38;;;;;;;;;;;4.30;90.20;;;;;;6162829;23;19912;-89
2022/03/21 00:38:34;;;;;;;;;;;4.30;90.30;;;;;;6155772;23;19934;-88
2022/03/21 00:41:08;;;;;;;;;;;4.30;90.30;;;;;;6188317;23;19908;-88
2022/03/21 00:44:05;;;;;;;;;;;;;;;;;;;;;
2022/03/21 00:46:35;;;;;;;;;;;;;;;;;;;;;
2022/03/21 00:49:22;;;;;;;;;;;;;;;;;;;;;
2022/03/21 00:52:00;;;;;;;;;;;;;;;;;;;;;
2022/03/21 00:54:44;;;;;;;;;;;4.10;90.20;;;;;;6195830;23;19954;-86
2022/03/21 00:57:15;;;;;;;;;;;4.10;90.30;;;;;;6170815;23;19904;-87
2022/03/21 00:59:49;;;;;;;;;;;4.00;90.30;;;;;;6218433;23;19908;-89
2022/03/21 01:02:38;;;;;;;;;;;4.00;90.30;;;;;;6192577;23;19904;-88
2022/03/21 01:05:34;;;;;;;;;;;;;;;;;;;;;
2022/03/21 01:08:05;;;;;;;;;;;4.00;90.30;;;;;;6217903;23;19991;-90
2022/03/21 01:10:46;;;;;;;;;;;;;;;;;;;;;
2022/03/21 01:16:17;;;;;;;;;;;3.90;90.40;;;;;;6186741;23;19962;-89
2022/03/21 01:18:53;;;;;;;;;;;3.80;90.30;;;;;;6193563;23;19908;-89
2022/03/21 01:21:19;;;;;;;;;;;3.80;90.40;;;;;;6194653;23;19926;-89
2022/03/21 01:24:05;;;;;;;;;;;3.70;90.40;;;;;;6209627;22;19892;-89
2022/03/21 01:32:17;;;;;;;;;;;3.60;90.40;;;;;;6216337;23;19939;-89
2022/03/21 01:35:09;;;;;;;;;;;3.60;90.40;;;;;;6192677;23;20265;-90
2022/03/21 01:37:38;;;;;;;;;;;3.60;90.40;;;;;;6218715;23;19904;-90
2022/03/21 01:40:10;;;;;;;;;;;3.60;90.40;;;;;;6192600;23;19904;-88
2022/03/21 01:42:41;;;;;;;;;;;3.60;90.40;;;;;;6191440;23;19911;-88
2022/03/21 01:45:11;;;;;;;;;;;3.50;90.40;;;;;;6192663;23;19915;-87
2022/03/21 01:47:43;;;;;;;;;;;3.50;90.50;;;;;;6191360;23;19914;-88
2022/03/21 01:50:17;;;;;;;;;;;3.50;90.50;;;;;;6193101;23;20219;-89
2022/03/21 01:52:50;;;;;;;;;;;3.40;90.50;;;;;;6194279;23;19912;-89
2022/03/21 01:55:44;;;;;;;;;;;3.40;90.50;;;;;;6217781;23;19904;-89
2022/03/21 01:58:21;;;;;;;;;;;3.30;90.50;;;;;;6188750;23;19939;-89
2022/03/21 02:00:52;;;;;;;;;;;3.40;90.60;;;;;;6217600;23;19916;-90
2022/03/21 02:03:24;;;;;;;;;;;3.40;90.60;;;;;;6189725;23;19912;-89
2022/03/21 02:06:28;;;;;;;;;;;;;;;;;;;;;
2022/03/21 02:11:41;;;;;;;;;;;3.40;90.70;;;;;;6218418;23;20298;-90
2022/03/21 02:14:07;;;;;;;;;;;3.50;90.80;;;;;;6191573;23;19908;-88
2022/03/21 02:16:42;;;;;;;;;;;3.40;90.80;;;;;;6191334;23;19911;-89
2022/03/21 02:19:18;;;;;;;;;;;;;;;;;;;;;
2022/03/21 02:22:03;;;;;;;;;;;3.50;90.80;;;;;;6218585;23;19983;-89
2022/03/21 02:24:49;;;;;;;;;;;3.50;90.90;;;;;;6191944;23;19943;-89
2022/03/21 02:27:35;;;;;;;;;;;3.50;90.90;;;;;;6193863;23;19983;-89
2022/03/21 02:30:09;;;;;;;;;;;3.50;91.00;;;;;;6194115;23;19915;-89
2022/03/21 02:32:38;;;;;;;;;;;3.50;91.00;;;;;;6193565;23;19904;-89
2022/03/21 02:35:07;;;;;;;;;;;3.40;91.00;;;;;;6194162;23;19904;-89
2022/03/21 02:37:36;;;;;;;;;;;3.40;91.00;;;;;;6193235;23;19904;-89
2022/03/21 02:40:30;;;;;;;;;;;3.40;91.10;;;;;;6193844;23;19927;-89
2022/03/21 02:42:58;;;;;;;;;;;3.40;91.20;;;;;;6194336;23;19904;-89
2022/03/21 02:45:37;;;;;;;;;;;3.40;91.20;;;;;;6194137;23;19904;-90
2022/03/21 02:48:13;;;;;;;;;;;3.40;91.20;;;;;;6211824;22;19900;-88
2022/03/21 02:50:44;;;;;;;;;;;3.40;91.20;;;;;;6219529;22;19898;-90
2022/03/21 02:53:13;;;;;;;;;;;3.40;91.20;;;;;;6219937;22;19915;-88
2022/03/21 02:56:09;;;;;;;;;;;;;;;;;;;;;
2022/03/21 02:58:37;;;;;;;;;;;3.40;91.30;;;;;;6211074;23;19939;-88
2022/03/21 03:01:08;;;;;;;;;;;3.40;91.30;;;;;;6194990;23;19935;-89
2022/03/21 03:06:28;;;;;;;;;;;3.40;91.30;;;;;;6220153;23;19950;-90
2022/03/21 03:08:56;;;;;;;;;;;3.40;91.30;;;;;;6193526;23;19935;-88
2022/03/21 03:11:42;;;;;;;;;;;3.30;91.30;;;;;;6193895;23;19907;-90
2022/03/21 03:14:18;;;;;;;;;;;3.40;91.30;;;;;;6197889;23;19904;-88
2022/03/21 03:16:56;;;;;;;;;;;;;;;;;;;;;
2022/03/21 03:19:48;;;;;;;;;;;3.50;91.30;;;;;;6220814;23;19957;-91
2022/03/21 03:22:17;;;;;;;;;;;3.60;91.30;;;;;;6210456;23;19904;-89
2022/03/21 03:24:53;;;;;;;;;;;3.60;91.30;;;;;;6193251;23;19958;-87
2022/03/21 03:27:26;;;;;;;;;;;3.70;91.30;;;;;;6220572;23;19911;-89
2022/03/21 03:30:13;;;;;;;;;;;3.70;91.60;;;;;;6194205;23;19951;-89
2022/03/21 03:32:43;;;;;;;;;;;3.70;91.30;;;;;;6194011;23;19908;-87
2022/03/21 03:35:12;;;;;;;;;;;3.70;91.30;;;;;;6191291;23;19908;-89
2022/03/21 03:38:19;;;;;;;;;;;3.60;91.30;;;;;;6193215;23;19926;-90
2022/03/21 03:40:49;;;;;;;;;;;3.60;91.40;;;;;;6218026;23;19910;-88
2022/03/21 03:43:43;;;;;;;;;;;3.50;91.40;;;;;;6220082;23;19904;-89
2022/03/21 03:46:16;;;;;;;;;;;3.50;91.40;;;;;;6219171;23;19904;-90
2022/03/21 03:48:55;;;;;;;;;;;;;;;;;;;;;
2022/03/21 03:51:37;;;;;;;;;;;3.40;91.40;;;;;;6221176;23;19987;-88
2022/03/21 03:54:10;;;;;;;;;;;3.40;91.40;;;;;;6205273;23;19910;-86
2022/03/21 03:56:40;;;;;;;;;;;3.30;91.40;;;;;;6203744;23;20326;-89
2022/03/21 03:59:13;;;;;;;;;;;3.30;91.50;;;;;;6221052;23;19986;-88
2022/03/21 04:01:50;;;;;;;;;;;3.30;91.50;;;;;;6193677;23;19904;-87
2022/03/21 04:04:23;;;;;;;;;;;3.20;91.50;;;;;;6193760;23;19908;-89
2022/03/21 04:06:59;;;;;;;;;;;;;;;;;;;;;
2022/03/21 04:09:30;;;;;;;;;;;3.20;91.60;;;;;;6222561;23;19994;-89
2022/03/21 04:12:03;;;;;;;;;;;3.20;91.60;;;;;;6217360;22;19903;-89
2022/03/21 04:14:34;;;;;;;;;;;3.20;91.60;;;;;;6218764;23;19912;-92
2022/03/21 04:17:10;;;;;;;;;;;3.20;91.70;;;;;;6216524;23;19908;-89
2022/03/21 04:19:40;;;;;;;;;;;3.10;91.70;;;;;;6200924;23;19908;-88
2022/03/21 04:22:06;;;;;;;;;;;3.10;91.70;;;;;;6194411;23;19914;-89
2022/03/21 04:24:37;;;;;;;;;;;3.10;91.80;;;;;;6193824;23;20323;-89
2022/03/21 04:27:05;;;;;;;;;;;3.00;91.70;;;;;;6194063;23;19904;-89
2022/03/21 04:29:33;;;;;;;;;;;3.00;91.80;;;;;;6193786;23;19923;-88
2022/03/21 04:32:04;;;;;;;;;;;3.00;91.80;;;;;;6218714;23;19919;-88
2022/03/21 04:35:17;;;;;;;;;;;3.00;91.80;;;;;;6193586;23;19904;-90
2022/03/21 04:37:27;;;;;;;;;;;3.00;91.70;;;;;;6208299;23;19908;-88
2022/03/21 04:40:05;;;;;;;;;;;2.90;91.70;;;;;;6193163;23;19911;-88
2022/03/21 04:42:37;;;;;;;;;;;2.90;91.60;;;;;;6218524;23;19923;-88
2022/03/21 04:45:29;;;;;;;;;;;2.90;91.60;;;;;;6192442;23;19904;-89
2022/03/21 04:47:58;;;;;;;;;;;2.80;91.60;;;;;;6191920;23;19908;-88
2022/03/21 04:50:32;;;;;;;;;;;2.90;91.60;;;;;;6192563;23;19908;-87
2022/03/21 04:53:10;;;;;;;;;;;;;;;;;;;;;
2022/03/21 04:55:57;;;;;;;;;;;2.80;91.60;;;;;;6218017;23;19992;-89
2022/03/21 04:58:43;;;;;;;;;;;2.70;91.50;;;;;;6217734;23;19916;-87
2022/03/21 05:01:23;;;;;;;;;;;2.70;91.50;;;;;;6196866;23;20319;-88
2022/03/21 05:03:50;;;;;;;;;;;2.70;91.50;;;;;;6192483;23;19904;-87
2022/03/21 05:06:21;;;;;;;;;;;2.60;91.50;;;;;;6191561;23;19904;-87
2022/03/21 05:08:49;;;;;;;;;;;2.60;91.50;;;;;;6192232;23;20241;-90
2022/03/21 05:11:59;;;;;;;;;;;2.50;91.60;;;;;;6219040;23;19936;-89
2022/03/21 05:14:32;;;;;;;;;;;2.50;91.60;;;;;;6218227;23;19911;-88
2022/03/21 05:17:17;;;;;;;;;;;2.50;91.70;;;;;;6192224;23;19924;-88
2022/03/21 05:19:48;;;;;;;;;;;2.40;91.70;;;;;;6192373;23;19904;-91
2022/03/21 05:22:14;;;;;;;;;;;2.40;91.70;;;;;;6192796;23;19932;-89
2022/03/21 05:42:57;;;;;;;;;;;2.30;91.80;;;;;;6233706;22;19915;-87
2022/03/21 05:45:53;;;;;;;;;;;;;;;;;;;;;
2022/03/21 05:48:51;;;;;;;;;;;2.30;91.80;;;;;;6219245;23;19995;-88
2022/03/21 05:51:50;;;;;;;;;;;2.30;91.80;;;;;;6098813;23;20324;-90
2022/03/21 05:54:16;;;;;;;;;;;2.30;91.80;;;;;;6095484;23;19905;-87
2022/03/21 05:56:51;;;;;;;;;;;2.20;91.80;;;;;;6173013;23;19904;-87
2022/03/21 06:03:18;;;;;;;;;;;2.20;91.70;;;;;;6097840;23;19916;-92
2022/03/21 06:09:25;;;;;;;;;;;2.20;91.80;;;;;;6069033;23;19909;-90
2022/03/21 06:15:04;;;;;;;;;;;2.20;91.90;;;;;;6039957;23;19912;-89
2022/03/21 06:27:39;;;;;;;;;;;;;;;;;;;;;
2022/03/21 06:30:56;;;;;;;;;;;;;;;;;;;;;
2022/03/21 06:36:59;;;;;;;;;;;;;;;;;;;;;
2022/03/21 06:58:16;;;;;;;;;;;;;;;;;;;;;
2022/03/21 07:01:35;;;;;;;;;;;;;;;;;;;;;
2022/03/21 07:04:56;;;;;;;;;;;;;;;;;;;;;
2022/03/21 07:07:50;;;;;;;;;;;;;;;;;;;;;
2022/03/21 07:13:40;;;;;;;;;;;;;;;;;;;;;
2022/03/21 07:19:35;;;;;;;;;;;3.20;92.40;;;;;;5996685;23;19914;-92
2022/03/21 07:28:49;;;;;;;;;;;3.50;92.30;;;;;;5915397;24;19915;-87
2022/03/21 07:40:49;;;;;;;;;;;4.30;92.80;;;;;;6039575;23;20322;-91
2022/03/21 07:43:42;;;;;;;;;;;4.40;92.80;;;;;;6017867;23;19906;-88
2022/03/21 07:57:08;;;;;;;;;;;;;;;;;;;;;
2022/03/21 08:18:59;;;;;;;;;;;6.00;92.80;;;;;;6172751;23;19904;-93
2022/03/21 08:22:05;;;;;;;;;;;;;;;;;;;;;
2022/03/21 08:31:28;;;;;;;;;;;;;;;;;;;;;
2022/03/21 08:37:49;;;;;;;;;;;;;;;;;;;;;
2022/03/21 08:53:00;;;;;;;;;;;;;;;;;;;;;
2022/03/21 08:59:02;;;;;;;;;;;;;;;;;;;;;
2022/03/21 09:05:19;;;;;;;;;;;7.90;92.10;;;;;;6012785;23;19929;-88
2022/03/21 09:11:47;;;;;;;;;;;;;;;;;;;;;
2022/03/21 09:24:47;;;;;;;;;;;8.70;91.60;;;;;;5929105;24;19907;-89
2022/03/21 09:53:28;;;;;;;;;;;;;;;;;;;;;
2022/03/21 10:40:17;;;;;;;;;;;;;;;;;;;;;
2022/03/21 10:43:40;;;;;;;;;;;;;;;;;;;;;
2022/03/21 11:01:59;;;;;;;;;;;11.70;86.50;;;;;;6175076;23;19923;-89
2022/03/21 11:04:40;;;;;;;;;;;11.80;86.10;;;;;;6191138;23;19904;-88
2022/03/21 11:19:51;;;;;;;;;;;12.20;85.60;;;;;;6129603;23;19916;-90
2022/03/21 11:32:26;;;;;;;;;;;12.60;85.00;;;;;;6000015;23;19910;-90
2022/03/21 11:35:07;;;;;;;;;;;;;;;;;;;;;
2022/03/21 11:54:07;;;;;;;;;;;;;;;;;;;;;
2022/03/21 12:21:37;;;;;;;;;;;13.80;80.80;;;;;;5957165;24;19919;-93
2022/03/21 12:31:23;;;;;;;;;;;;;;;;;;;;;
2022/03/21 12:34:21;;;;;;;;;;;;;;;;;;;;;
2022/03/21 12:46:24;;;;;;;;;;;;;;;;;;;;;
2022/03/21 12:58:59;;;;;;;;;;;;;;;;;;;;;
2022/03/21 13:23:49;;;;;;;;;;;15.10;76.30;;;;;;6041096;23;19920;-88
2022/03/21 13:58:37;;;;;;;;;;;;;;;;;;;;;
2022/03/21 14:04:47;;;;;;;;;;;15.60;75.00;;;;;;5969102;23;19918;-91
2022/03/21 14:20:21;;;;;;;;;;;15.80;74.00;;;;;;5920547;24;20247;-91
2022/03/21 14:23:23;;;;;;;;;;;15.90;74.20;;;;;;5929979;24;20315;-87
2022/03/21 14:35:51;;;;;;;;;;;;;;;;;;;;;
2022/03/21 15:10:37;;;;;;;;;;;;;;;;;;;;;
2022/03/21 15:48:34;;;;;;;;;;;;;;;;;;;;;
2022/03/21 16:08:27;;;;;;;;;;;;;;;;;;;;;
2022/03/21 16:11:38;;;;;;;;;;;;;;;;;;;;;
2022/03/21 16:21:26;;;;;;;;;;;16.20;71.80;;;;;;5901492;24;19914;-90
2022/03/21 16:24:16;;;;;;;;;;;16.10;71.90;;;;;;5912870;23;19914;-89
2022/03/21 16:30:54;;;;;;;;;;;16.20;71.70;;;;;;6011188;23;19946;-89
2022/03/21 16:39:36;;;;;;;;;;;16.00;71.70;;;;;;6100143;23;19913;-90
2022/03/21 16:42:54;;;;;;;;;;;16.10;71.70;;;;;;6030997;23;19905;-89
2022/03/21 16:45:50;;;;;;;;;;;;;;;;;;;;;
2022/03/21 16:55:02;;;;;;;;;;;15.90;71.00;;;;;;6144092;23;19893;-90
2022/03/21 17:00:48;;;;;;;;;;;15.90;71.00;;;;;;6198311;23;19920;-91
2022/03/21 17:29:10;;;;;;;;;;;;;;;;;;;;;
2022/03/21 18:16:51;;;;;;;;;;;;;;;;;;;;;
2022/03/21 20:02:46;;;;;;;;;;;;;;;;;;;;;
2022/03/21 20:05:48;;;;;;;;;;;;;;;;;;;;;
2022/03/21 20:11:44;;;;;;;;;;;;;;;;;;;;;
2022/03/21 20:14:22;;;;;;;;;;;12.90;79.10;;;;;;6106548;23;20307;-92
2022/03/21 20:23:27;;;;;;;;;;;;;;;;;;;;;
2022/03/21 20:29:22;;;;;;;;;;;12.70;79.20;;;;;;6091690;23;19941;-92
2022/03/21 20:35:17;;;;;;;;;;;;;;;;;;;;;
2022/03/21 20:38:14;;;;;;;;;;;12.70;79.30;;;;;;6104627;23;19932;-93
2022/03/21 20:41:29;;;;;;;;;;;12.70;79.40;;;;;;6094564;23;20347;-92
2022/03/21 20:44:14;;;;;;;;;;;12.70;79.50;;;;;;6187504;23;20377;-92
2022/03/21 20:50:10;;;;;;;;;;;;;;;;;;;;;
2022/03/21 20:53:08;;;;;;;;;;;12.60;79.60;;;;;;6227516;23;19946;-94
2022/03/21 20:56:18;;;;;;;;;;;12.50;79.60;;;;;;6190047;23;19904;-93
2022/03/21 20:58:54;;;;;;;;;;;12.50;79.60;;;;;;6181036;23;19927;-92
2022/03/21 21:01:25;;;;;;;;;;;12.40;79.70;;;;;;6202869;23;19930;-90
2022/03/21 21:04:17;;;;;;;;;;;12.40;79.90;;;;;;6193335;23;19992;-89
2022/03/21 21:07:01;;;;;;;;;;;;;;;;;;;;;
2022/03/21 21:09:30;;;;;;;;;;;12.40;79.80;;;;;;6193710;23;19952;-89
2022/03/21 21:12:00;;;;;;;;;;;12.30;79.80;;;;;;6218682;23;19991;-90
2022/03/21 21:14:35;;;;;;;;;;;12.30;80.00;;;;;;6218674;23;19931;-90
2022/03/21 21:17:13;;;;;;;;;;;12.20;80.70;;;;;;6218476;23;19987;-89
2022/03/21 21:19:40;;;;;;;;;;;12.10;80.30;;;;;;6219344;23;19931;-91
2022/03/21 21:22:14;;;;;;;;;;;12.10;81.10;;;;;;6215275;23;20315;-89
2022/03/21 21:25:10;;;;;;;;;;;;;;;;;;;;;
2022/03/21 21:27:48;;;;;;;;;;;11.90;80.80;;;;;;6186023;23;19991;-90
2022/03/21 21:30:34;;;;;;;;;;;11.80;81.00;;;;;;6212523;23;19919;-89
2022/03/21 21:33:30;;;;;;;;;;;11.70;81.10;;;;;;6213214;23;20307;-89
2022/03/21 21:36:04;;;;;;;;;;;11.70;81.20;;;;;;6184220;23;19904;-89
2022/03/21 21:38:35;;;;;;;;;;;11.70;81.20;;;;;;6189580;23;20304;-91
2022/03/21 21:41:04;;;;;;;;;;;11.80;81.20;;;;;;6190053;23;19951;-89
2022/03/21 21:43:29;;;;;;;;;;;11.70;81.20;;;;;;6188078;23;19909;-90
2022/03/21 21:45:57;;;;;;;;;;;11.70;81.30;;;;;;6187953;23;20278;-89
2022/03/21 21:48:28;;;;;;;;;;;11.70;81.20;;;;;;6213000;23;19939;-89
2022/03/21 21:51:11;;;;;;;;;;;11.70;81.10;;;;;;6188119;23;19916;-90
2022/03/21 21:53:43;;;;;;;;;;;11.70;81.30;;;;;;6192228;23;19919;-89
2022/03/21 21:56:18;;;;;;;;;;;11.70;81.40;;;;;;6214305;23;19904;-88
2022/03/21 21:58:57;;;;;;;;;;;11.70;81.60;;;;;;6188446;23;19920;-89
2022/03/21 22:01:41;;;;;;;;;;;;;;;;;;;;;
2022/03/21 22:04:32;;;;;;;;;;;11.70;81.50;;;;;;6184342;23;20004;-88
2022/03/21 22:07:22;;;;;;;;;;;11.70;81.50;;;;;;6208398;23;20000;-89
2022/03/21 22:09:53;;;;;;;;;;;11.60;81.50;;;;;;6193438;23;19918;-89
2022/03/21 22:13:01;;;;;;;;;;;11.60;81.60;;;;;;6184073;23;19893;-90
2022/03/21 22:15:48;;;;;;;;;;;11.60;81.60;;;;;;6192595;23;19932;-90
2022/03/21 22:18:19;;;;;;;;;;;11.50;81.60;;;;;;6183624;23;20301;-90
2022/03/21 22:20:51;;;;;;;;;;;11.40;81.70;;;;;;6183463;23;19953;-89
2022/03/21 22:26:49;;;;;;;;;;;11.30;82.00;;;;;;6159686;23;19905;-89
2022/03/21 22:29:27;;;;;;;;;;;11.20;82.20;;;;;;6183355;23;19916;-89
2022/03/21 22:32:00;;;;;;;;;;;11.20;82.40;;;;;;6159415;23;19984;-88
2022/03/21 22:37:28;;;;;;;;;;;11.10;82.60;;;;;;6159361;23;19959;-88
2022/03/21 22:48:46;;;;;;;;;;;;;;;;;;;;;
2022/03/21 22:51:20;;;;;;;;;;;11.00;82.70;;;;;;6161768;23;19992;-89
2022/03/21 22:53:48;;;;;;;;;;;11.00;82.80;;;;;;6185244;23;19909;-88
2022/03/21 22:56:34;;;;;;;;;;;11.00;82.80;;;;;;6184247;23;19962;-90
2022/03/21 22:59:34;;;;;;;;;;;;;;;;;;;;;
2022/03/21 23:04:48;;;;;;;;;;;11.00;83.20;;;;;;6193325;23;19995;-89
2022/03/21 23:07:14;;;;;;;;;;;11.00;83.20;;;;;;6194253;23;20353;-89
2022/03/21 23:09:55;;;;;;;;;;;11.00;83.20;;;;;;6193809;23;19908;-89
2022/03/21 23:12:41;;;;;;;;;;;11.00;83.30;;;;;;6171756;23;21805;-88
2022/03/21 23:15:07;;;;;;;;;;;11.00;83.90;;;;;;6194531;23;19950;-89
2022/03/21 23:17:54;;;;;;;;;;;11.00;83.30;;;;;;6195602;23;19904;-89
2022/03/21 23:23:21;;;;;;;;;;;10.90;83.40;;;;;;6213031;23;19946;-90
2022/03/21 23:25:54;;;;;;;;;;;10.90;83.30;;;;;;6204883;23;19904;-89
2022/03/21 23:28:38;;;;;;;;;;;10.90;83.30;;;;;;6200201;23;19904;-91
2022/03/21 23:31:25;;;;;;;;;;;10.90;83.40;;;;;;6170038;23;19916;-90
2022/03/21 23:33:51;;;;;;;;;;;10.80;83.50;;;;;;6194570;23;19908;-89
2022/03/21 23:36:26;;;;;;;;;;;10.80;83.60;;;;;;6194657;23;19904;-89
2022/03/21 23:39:10;;;;;;;;;;;10.80;84.20;;;;;;6194375;23;20373;-88
2022/03/21 23:47:25;;;;;;;;;;;10.70;83.80;;;;;;6241070;22;19892;-89
2022/03/21 23:49:53;;;;;;;;;;;10.70;83.80;;;;;;6195127;22;19907;-88
2022/03/21 23:52:26;;;;;;;;;;;10.70;83.80;;;;;;6219467;23;19892;-88
2022/03/21 23:54:57;;;;;;;;;;;10.70;83.90;;;;;;6205181;23;19919;-88
2022/03/21 23:57:25;;;;;;;;;;;10.70;83.80;;;;;;6194697;23;19904;-91
